createdAt,value
2022-08-05T00:02:51.317Z,25.40
2022-08-05T00:06:04.978Z,25.40
2022-08-05T00:09:19.431Z,25.40
2022-08-05T00:12:22.753Z,25.39
2022-08-05T00:15:56.383Z,25.39
2022-08-05T00:18:50.179Z,25.38
2022-08-05T00:21:54.049Z,25.38
2022-08-05T00:24:58.667Z,25.33
2022-08-05T00:28:01.714Z,25.34
2022-08-05T00:31:07.586Z,25.34
2022-08-05T00:34:55.858Z,25.34
2022-08-05T00:37:50.906Z,25.34
2022-08-05T00:41:00.135Z,25.32
2022-08-05T00:44:03.609Z,25.32
2022-08-05T00:47:06.797Z,25.32
2022-08-05T00:50:15.226Z,25.32
2022-08-05T00:53:45.057Z,25.32
2022-08-05T00:56:51.822Z,25.30
2022-08-05T00:59:55.762Z,25.31
2022-08-05T01:03:00.066Z,25.30
2022-08-05T01:06:05.357Z,25.31
2022-08-05T01:09:08.619Z,25.27
2022-08-05T01:12:19.229Z,25.27
2022-08-05T01:15:35.547Z,25.26
2022-08-05T01:18:56.183Z,25.25
2022-08-05T01:22:24.069Z,25.26
2022-08-05T01:25:53.756Z,25.27
2022-08-05T01:29:04.385Z,25.26
2022-08-05T01:32:18.678Z,25.25
2022-08-05T01:35:51.060Z,25.24
2022-08-05T01:38:51.496Z,25.14
2022-08-05T01:41:56.980Z,25.07
2022-08-05T01:45:03.472Z,24.97
2022-08-05T01:48:10.880Z,25.02
2022-08-05T01:51:15.946Z,24.97
2022-08-05T01:54:25.489Z,24.99
2022-08-05T01:58:09.705Z,25.00
2022-08-05T02:01:00.676Z,25.05
2022-08-05T02:04:05.408Z,25.02
2022-08-05T02:07:08.531Z,25.02
2022-08-05T02:10:17.533Z,25.02
2022-08-05T02:13:28.583Z,24.96
2022-08-05T02:16:55.383Z,25.01
2022-08-05T02:20:02.948Z,25.01
2022-08-05T02:23:10.248Z,25.01
2022-08-05T02:26:17.445Z,25.03
2022-08-05T02:29:26.067Z,25.03
2022-08-05T02:32:34.579Z,25.05
2022-08-05T02:35:49.910Z,25.05
2022-08-05T02:38:59.723Z,25.06
2022-08-05T02:42:04.978Z,25.08
2022-08-05T02:45:10.372Z,25.06
2022-08-05T02:48:15.990Z,25.02
2022-08-05T02:51:28.207Z,24.98
2022-08-05T02:54:50.760Z,24.97
2022-08-05T02:58:10.139Z,24.99
2022-08-05T03:01:24.894Z,24.98
2022-08-05T03:04:30.641Z,24.93
2022-08-05T03:08:00.331Z,24.90
2022-08-05T03:11:47.620Z,24.91
2022-08-05T03:14:21.494Z,24.91
2022-08-05T03:17:24.713Z,24.91
2022-08-05T03:20:29.474Z,24.87
2022-08-05T03:23:34.634Z,24.90
2022-08-05T03:26:38.498Z,24.91
2022-08-05T03:29:46.003Z,24.91
2022-08-05T03:33:07.352Z,24.94
2022-08-05T03:36:12.358Z,24.94
2022-08-05T03:39:26.739Z,24.94
2022-08-05T03:42:32.276Z,24.93
2022-08-05T03:45:58.291Z,24.93
2022-08-05T03:48:59.488Z,24.93
2022-08-05T03:52:48.367Z,24.94
2022-08-05T03:55:52.812Z,24.93
2022-08-05T03:59:08.786Z,24.94
2022-08-05T04:02:17.302Z,24.94
2022-08-05T04:05:36.770Z,24.96
2022-08-05T04:08:45.226Z,24.96
2022-08-05T04:11:52.758Z,24.97
2022-08-05T04:14:57.780Z,24.96
2022-08-05T04:18:03.390Z,24.97
2022-08-05T04:21:07.335Z,24.97
2022-08-05T04:24:19.704Z,24.98
2022-08-05T04:27:33.350Z,24.97
2022-08-05T04:30:45.345Z,24.97
2022-08-05T04:34:18.439Z,24.97
2022-08-05T04:37:12.014Z,24.98
2022-08-05T04:40:19.478Z,24.97
2022-08-05T04:43:22.803Z,25.00
2022-08-05T04:46:29.071Z,25.00
2022-08-05T04:49:38.482Z,25.00
2022-08-05T04:52:55.534Z,25.01
2022-08-05T04:56:33.341Z,25.01
2022-08-05T04:59:37.419Z,25.00
2022-08-05T05:02:43.284Z,25.01
2022-08-05T05:06:40.556Z,25.00
2022-08-05T05:09:13.253Z,24.99
2022-08-05T05:12:18.817Z,24.99
2022-08-05T05:16:01.804Z,24.99
2022-08-05T05:19:02.744Z,24.98
2022-08-05T05:22:22.929Z,24.99
2022-08-05T05:25:32.502Z,25.00
2022-08-05T05:28:42.871Z,25.00
2022-08-05T05:31:48.237Z,25.00
2022-08-05T05:34:52.321Z,25.01
2022-08-05T05:38:01.701Z,25.01
2022-08-05T05:41:05.324Z,25.02
2022-08-05T05:44:26.988Z,25.01
2022-08-05T05:48:05.536Z,25.01
2022-08-05T05:50:59.142Z,25.02
2022-08-05T05:54:18.539Z,25.02
2022-08-05T05:57:23.252Z,25.00
2022-08-05T06:00:31.738Z,25.00
2022-08-05T06:03:54.128Z,25.00
2022-08-05T06:07:01.573Z,25.00
2022-08-05T06:10:10.040Z,25.01
2022-08-05T06:13:13.533Z,25.03
2022-08-05T06:16:30.696Z,25.03
2022-08-05T06:19:35.906Z,25.04
2022-08-05T06:22:40.557Z,25.05
2022-08-05T06:26:13.856Z,25.06
2022-08-05T06:29:25.551Z,25.06
2022-08-05T06:32:33.138Z,25.08
2022-08-05T06:36:08.078Z,25.07
2022-08-05T06:38:59.292Z,25.09
2022-08-05T06:42:04.082Z,25.11
2022-08-05T06:45:09.313Z,25.12
2022-08-05T06:48:54.499Z,25.14
2022-08-05T06:51:40.821Z,25.14
2022-08-05T06:54:43.973Z,25.16
2022-08-05T06:58:02.863Z,25.17
2022-08-05T07:01:21.048Z,25.19
2022-08-05T07:04:25.589Z,25.17
2022-08-05T07:07:43.340Z,25.21
2022-08-05T07:10:53.452Z,25.21
2022-08-05T07:14:15.636Z,25.23
2022-08-05T07:18:09.288Z,25.27
2022-08-05T07:20:55.935Z,25.29
2022-08-05T07:24:01.285Z,25.32
2022-08-05T07:27:04.733Z,25.34
2022-08-05T07:30:23.827Z,25.37
2022-08-05T07:33:36.588Z,25.40
2022-08-05T07:36:42.479Z,25.43
2022-08-05T07:40:26.044Z,25.48
2022-08-05T07:43:14.776Z,25.48
2022-08-05T07:46:26.060Z,25.52
2022-08-05T07:49:29.518Z,25.53
2022-08-05T07:52:33.946Z,25.60
2022-08-05T07:56:05.849Z,25.64
2022-08-05T07:59:00.057Z,25.68
2022-08-05T08:02:03.504Z,25.68
2022-08-05T08:05:07.698Z,25.71
2022-08-05T08:08:15.972Z,25.73
2022-08-05T08:11:27.640Z,25.76
2022-08-05T08:14:47.073Z,25.75
2022-08-05T08:17:52.873Z,25.79
2022-08-05T08:21:02.179Z,25.83
2022-08-05T08:24:13.741Z,25.86
2022-08-05T08:27:17.159Z,25.90
2022-08-05T08:30:32.912Z,25.94
2022-08-05T08:33:39.662Z,25.93
2022-08-05T08:36:50.181Z,25.91
2022-08-05T08:39:59.346Z,25.87
2022-08-05T08:45:01.617Z,25.85
2022-08-05T08:46:29.119Z,25.84
2022-08-05T08:50:22.880Z,25.84
2022-08-05T08:53:07.919Z,25.81
2022-08-05T08:56:17.234Z,25.79
2022-08-05T08:59:21.830Z,25.76
2022-08-05T09:02:30.972Z,25.74
2022-08-05T09:05:38.231Z,25.73
2022-08-05T09:08:42.178Z,25.72
2022-08-05T09:11:51.932Z,25.73
2022-08-05T09:15:05.777Z,25.73
2022-08-05T09:18:10.002Z,25.74
2022-08-05T09:21:20.885Z,25.74
2022-08-05T09:24:39.942Z,25.71
2022-08-05T09:28:04.051Z,25.69
2022-08-05T09:31:23.483Z,25.68
2022-08-05T09:34:51.560Z,25.65
2022-08-05T09:38:16.986Z,25.62
2022-08-05T09:41:19.479Z,25.60
2022-08-05T09:44:36.825Z,25.58
2022-08-05T09:47:55.351Z,25.59
2022-08-05T09:51:01.520Z,25.52
2022-08-05T09:54:08.333Z,25.54
2022-08-05T09:57:23.172Z,25.54
2022-08-05T10:00:29.622Z,25.53
2022-08-05T10:03:56.576Z,25.54
2022-08-05T10:06:59.930Z,25.53
2022-08-05T10:10:14.885Z,25.52
2022-08-05T10:13:44.081Z,25.53
2022-08-05T10:16:53.544Z,25.53
2022-08-05T10:20:04.564Z,25.52
2022-08-05T10:23:21.843Z,25.52
2022-08-05T10:26:51.180Z,25.52
2022-08-05T10:30:41.581Z,25.52
2022-08-05T10:33:21.262Z,25.53
2022-08-05T10:36:26.221Z,25.53
2022-08-05T10:40:03.218Z,25.54
2022-08-05T10:43:02.355Z,25.55
2022-08-05T10:46:09.348Z,25.53
2022-08-05T10:49:17.246Z,25.54
2022-08-05T10:52:49.396Z,25.53
2022-08-05T10:56:21.047Z,25.54
2022-08-05T11:00:04.399Z,25.53
2022-08-05T11:03:23.181Z,25.56
2022-08-05T11:06:31.876Z,25.55
2022-08-05T11:10:09.571Z,25.57
2022-08-05T11:13:40.750Z,25.57
2022-08-05T11:18:07.392Z,25.57
2022-08-05T11:20:57.618Z,25.58
2022-08-05T11:24:30.702Z,25.59
2022-08-05T11:27:50.760Z,25.59
2022-08-05T11:31:58.503Z,25.62
2022-08-05T11:34:59.533Z,25.62
2022-08-05T11:38:29.210Z,25.62
2022-08-05T11:41:56.477Z,25.61
2022-08-05T11:44:53.659Z,25.62
2022-08-05T11:47:59.026Z,25.63
2022-08-05T11:51:03.170Z,25.63
2022-08-05T11:54:07.073Z,25.63
2022-08-05T11:57:25.259Z,25.64
2022-08-05T12:00:30.378Z,25.64
2022-08-05T12:03:43.302Z,25.64
2022-08-05T12:07:01.836Z,25.66
2022-08-05T12:10:09.236Z,25.66
2022-08-05T12:13:28.068Z,25.66
2022-08-05T12:16:45.141Z,25.66
2022-08-05T12:20:26.353Z,25.67
2022-08-05T12:23:15.082Z,25.68
2022-08-05T12:26:18.175Z,25.70
2022-08-05T12:29:25.133Z,25.72
2022-08-05T12:32:28.461Z,25.72
2022-08-05T12:35:36.969Z,25.76
2022-08-05T12:38:43.282Z,25.77
2022-08-05T12:41:46.871Z,25.79
2022-08-05T12:44:53.036Z,25.79
2022-08-05T12:48:01.404Z,25.80
2022-08-05T12:52:11.210Z,25.82
2022-08-05T12:54:44.691Z,25.87
2022-08-05T12:58:38.569Z,25.89
2022-08-05T13:02:03.463Z,25.94
2022-08-05T13:04:52.423Z,25.95
2022-08-05T13:08:00.863Z,25.93
2022-08-05T13:11:04.516Z,25.90
2022-08-05T13:14:19.341Z,25.88
2022-08-05T13:17:31.863Z,25.88
2022-08-05T13:20:44.670Z,25.92
2022-08-05T13:23:52.187Z,25.96
2022-08-05T13:26:55.477Z,25.98
2022-08-05T13:30:34.510Z,26.02
2022-08-05T13:34:22.197Z,26.03
2022-08-05T13:36:47.455Z,26.02
2022-08-05T13:40:16.700Z,26.04
2022-08-05T13:43:22.037Z,26.04
2022-08-05T13:46:51.034Z,26.05
2022-08-05T13:49:53.298Z,26.07
2022-08-05T13:52:56.726Z,26.06
2022-08-05T13:56:02.179Z,26.11
2022-08-05T13:59:06.322Z,26.13
2022-08-05T14:02:26.478Z,26.14
2022-08-05T14:06:24.485Z,26.13
2022-08-05T14:08:57.639Z,26.14
2022-08-05T14:12:17.084Z,26.13
2022-08-05T14:16:06.038Z,26.15
2022-08-05T14:18:44.737Z,26.15
2022-08-05T14:22:09.998Z,26.17
2022-08-05T14:25:21.666Z,26.21
2022-08-05T14:28:27.083Z,26.21
2022-08-05T14:31:54.526Z,26.23
2022-08-05T14:34:53.689Z,26.23
2022-08-05T14:37:59.158Z,26.23
2022-08-05T14:41:07.719Z,26.23
2022-08-05T14:44:20.360Z,26.24
2022-08-05T14:48:02.948Z,26.27
2022-08-05T14:50:47.043Z,26.28
2022-08-05T14:54:06.609Z,26.29
2022-08-05T14:57:16.146Z,26.32
2022-08-05T15:00:21.434Z,26.30
2022-08-05T15:03:33.828Z,26.32
2022-08-05T15:06:37.927Z,26.28
2022-08-05T15:09:51.356Z,26.29
2022-08-05T15:13:03.668Z,26.32
2022-08-05T15:16:07.843Z,26.28
2022-08-05T15:19:23.514Z,26.26
2022-08-05T15:22:28.131Z,26.25
2022-08-05T15:25:51.667Z,26.24
2022-08-05T15:28:56.097Z,26.22
2022-08-05T15:32:03.111Z,26.22
2022-08-05T15:35:10.860Z,26.19
2022-08-05T15:38:34.522Z,26.20
2022-08-05T15:41:55.910Z,26.20
2022-08-05T15:45:01.028Z,26.17
2022-08-05T15:48:05.065Z,26.16
2022-08-05T15:51:09.862Z,26.15
2022-08-05T15:54:15.068Z,26.16
2022-08-05T15:57:20.259Z,26.13
2022-08-05T16:00:26.005Z,26.11
2022-08-05T16:03:35.917Z,26.08
2022-08-05T16:06:44.310Z,26.08
2022-08-05T16:09:47.314Z,26.09
2022-08-05T16:12:51.790Z,26.08
2022-08-05T16:15:55.589Z,26.05
2022-08-05T16:18:58.597Z,26.06
2022-08-05T16:22:03.711Z,26.04
2022-08-05T16:25:09.550Z,26.04
2022-08-05T16:28:15.543Z,26.04
2022-08-05T16:31:18.762Z,26.03
2022-08-05T16:34:23.345Z,26.04
2022-08-05T16:38:03.341Z,26.04
2022-08-05T16:40:54.964Z,26.04
2022-08-05T16:44:00.782Z,26.04
2022-08-05T16:47:04.087Z,26.04
2022-08-05T16:50:09.978Z,26.04
2022-08-05T16:53:23.357Z,26.05
2022-08-05T16:56:36.470Z,26.02
2022-08-05T17:00:02.919Z,26.01
2022-08-05T17:03:15.263Z,25.97
2022-08-05T17:06:24.722Z,25.97
2022-08-05T17:09:27.935Z,25.95
2022-08-05T17:12:51.486Z,25.92
2022-08-05T17:16:13.166Z,25.93
2022-08-05T17:19:19.746Z,25.90
2022-08-05T17:22:25.443Z,25.85
2022-08-05T17:25:33.786Z,25.85
2022-08-05T17:28:37.372Z,25.82
2022-08-05T17:31:58.433Z,25.81
2022-08-05T17:35:02.167Z,25.76
2022-08-05T17:38:07.790Z,25.75
2022-08-05T17:42:18.236Z,25.72
2022-08-05T17:44:34.878Z,25.70
2022-08-05T17:47:39.886Z,25.68
2022-08-05T17:50:43.098Z,25.62
2022-08-05T17:53:50.790Z,25.58
2022-08-05T17:56:58.553Z,25.58
2022-08-05T18:00:05.623Z,25.59
2022-08-05T18:03:10.284Z,25.53
2022-08-05T18:06:15.213Z,25.47
2022-08-05T18:09:18.774Z,25.41
2022-08-05T18:12:24.179Z,25.33
2022-08-05T18:15:28.083Z,25.33
2022-08-05T18:18:39.886Z,25.36
2022-08-05T18:22:08.832Z,25.31
2022-08-05T18:25:07.288Z,25.32
2022-08-05T18:28:10.386Z,25.32
2022-08-05T18:31:15.911Z,25.32
2022-08-05T18:34:21.672Z,25.26
2022-08-05T18:37:33.508Z,25.23
2022-08-05T18:41:57.289Z,25.23
2022-08-05T18:44:05.606Z,25.25
2022-08-05T18:47:12.153Z,25.26
2022-08-05T18:50:42.267Z,25.21
2022-08-05T18:53:50.470Z,25.20
2022-08-05T18:56:53.735Z,25.18
2022-08-05T19:00:02.314Z,25.11
2022-08-05T19:03:07.206Z,25.12
2022-08-05T19:06:22.165Z,25.02
2022-08-05T19:09:40.075Z,25.01
2022-08-05T19:12:43.465Z,24.95
2022-08-05T19:15:57.060Z,24.96
2022-08-05T19:19:01.585Z,24.92
2022-08-05T19:22:06.275Z,24.92
2022-08-05T19:25:10.247Z,24.92
2022-08-05T19:28:24.751Z,24.88
2022-08-05T19:31:27.843Z,24.88
2022-08-05T19:34:36.929Z,24.86
2022-08-05T19:38:06.906Z,24.83
2022-08-05T19:41:06.999Z,24.75
2022-08-05T19:44:13.027Z,24.76
2022-08-05T19:47:17.081Z,24.71
2022-08-05T19:50:21.002Z,24.72
2022-08-05T19:54:04.062Z,24.66
2022-08-05T19:56:52.522Z,24.71
2022-08-05T20:00:02.440Z,24.67
2022-08-05T20:03:14.392Z,24.64
2022-08-05T20:06:28.738Z,24.65
2022-08-05T20:09:54.375Z,24.62
2022-08-05T20:12:56.798Z,24.63
2022-08-05T20:16:00.813Z,24.62
2022-08-05T20:19:07.368Z,24.65
2022-08-05T20:22:10.423Z,24.67
2022-08-05T20:25:15.841Z,24.65
2022-08-05T20:28:18.833Z,24.63
2022-08-05T20:31:37.023Z,24.60
2022-08-05T20:34:46.255Z,24.58
2022-08-05T20:38:05.328Z,24.55
2022-08-05T20:41:11.587Z,24.58
2022-08-05T20:44:30.583Z,24.61
2022-08-05T20:47:34.117Z,24.59
2022-08-05T20:50:45.482Z,24.58
2022-08-05T20:53:56.398Z,24.57
2022-08-05T20:57:03.367Z,24.41
2022-08-05T21:00:21.338Z,24.50
2022-08-05T21:03:34.481Z,24.52
2022-08-05T21:06:38.325Z,24.53
2022-08-05T21:09:53.814Z,24.45
2022-08-05T21:13:08.959Z,24.44
2022-08-05T21:16:17.848Z,24.42
2022-08-05T21:19:20.831Z,24.38
2022-08-05T21:22:26.846Z,24.35
2022-08-05T21:25:34.131Z,24.38
2022-08-05T21:28:40.105Z,24.35
2022-08-05T21:31:51.383Z,24.41
2022-08-05T21:34:56.026Z,24.32
2022-08-05T21:38:18.025Z,24.33
2022-08-05T21:41:20.968Z,24.37
2022-08-05T21:44:27.058Z,24.31
2022-08-05T21:47:56.571Z,24.28
2022-08-05T21:50:54.322Z,24.26
2022-08-05T21:54:03.480Z,24.26
2022-08-05T21:57:30.948Z,24.27
2022-08-05T22:00:31.841Z,24.26
2022-08-05T22:03:48.568Z,24.24
2022-08-05T22:06:57.054Z,24.27
2022-08-05T22:10:00.659Z,24.25
2022-08-05T22:13:09.199Z,24.27
2022-08-05T22:16:41.611Z,24.24
2022-08-05T22:20:00.678Z,24.25
2022-08-05T22:24:01.168Z,24.25
2022-08-05T22:27:11.044Z,24.19
2022-08-05T22:30:17.507Z,24.18
2022-08-05T22:33:57.080Z,24.18
2022-08-05T22:36:44.862Z,24.12
2022-08-05T22:39:52.459Z,24.15
2022-08-05T22:42:58.501Z,24.13
2022-08-05T22:46:04.645Z,24.08
2022-08-05T22:50:18.483Z,24.15
2022-08-05T22:52:37.492Z,24.12
2022-08-05T22:55:56.261Z,24.13
2022-08-05T22:59:04.019Z,24.10
2022-08-05T23:02:29.183Z,24.11
2022-08-05T23:05:36.055Z,24.15
2022-08-05T23:08:39.286Z,24.11
2022-08-05T23:11:46.644Z,24.13
2022-08-05T23:14:53.322Z,24.17
2022-08-05T23:18:00.551Z,24.16
2022-08-05T23:21:07.702Z,24.15
2022-08-05T23:24:13.391Z,24.16
2022-08-05T23:27:17.270Z,24.11
2022-08-05T23:30:26.877Z,24.11
2022-08-05T23:34:05.323Z,24.09
2022-08-05T23:36:56.239Z,24.10
2022-08-05T23:40:07.479Z,24.10
2022-08-05T23:43:24.951Z,24.05
2022-08-05T23:46:37.501Z,24.03
2022-08-05T23:49:42.345Z,24.04
2022-08-05T23:52:51.610Z,24.02
2022-08-05T23:55:56.848Z,24.01
2022-08-05T23:59:02.312Z,24.00
